Capitol Logistics 330


CYYZ
Lester B. Pearson International Airport
Toronto, CA
KIAD
Washington Dulles International Airport
Dulles, US

Activity Log

Date Flight Route Aircraft Duration
03/26/2020 CPX330 DUSOM2 PSB MAPEL2 B763 1h 03m
03/01/2020 CPX330 CYYZ/33R DUSOM2 PSB MAPEL2 KIAD/I01C B763 1h 14m
11/05/2019 CPX330 RIGUS2 PSB MAPEL2 B763 1h 08m
06/26/2019 CPX330 RIGUS2 PSB MAPEL2 B763 0h 04m

Route Details

Aircraft Information
Primary: Boeing 767-300BDSF
Backup: Not Available
Route Data
Distance: 301nm
Sched. Duration: 1h 24m
Avg. Duration: 0h 82m (-42m)
Times Flown: 4
Recm'd Route: RIGUS2 PSB MAPEL2
Planned Altitude: 35,000ft
Origin Wx: CYYZ 061200Z 09005KT 030V110 15SM SKC 25/18 A3002 RMK SLP164 DENSITY ALT 1800FT
Dest. Wx: KIAD 061252Z 18003KT 10SM SCT110 BKN160 BKN240 24/21 A3005 RMK AO2 SLP174 T02440211
Notes:

Financial History
Total Freight: 280,750lbs
Average Load: 70,188lbs/flt
Fuel Used: 102,306lbs
Avg. Fuel Used: 25,577lbs/flt
Fuel Expense: $63,430
Avg. Fuel Expense: $15,857
Avg. Fuel Cost: $0.62/lbs
Total Gross Income: $378,999
Pilot Pay: $736
Total Expenses: $41,140
Total Revenue: $273,462
Average Revenue: $94,749.78